Time;durP1;ratioP1;P1;durP2;ratioP2;P2;SDS_P1;SDS_P2;PMS_P1;PMS_P2;Temp;Humidity;BMP_temperature;BMP_pressure;BME280_temperature;BME280_humidity;BME280_pressure;Samples;Min_cycle;Max_cycle;Signal;HPM_P1;HPM_P2
2022/03/14 00:00:54;;;;;;;25.73;21.35;;;11.00;57.50;;;;;;6183507;23;20024;-77
2022/03/14 00:03:21;;;;;;;26.73;23.63;;;11.10;57.90;;;;;;6182697;23;20071;-76
2022/03/14 00:05:46;;;;;;;27.58;23.90;;;11.10;58.40;;;;;;6210087;23;20016;-76
2022/03/14 00:08:13;;;;;;;27.38;21.83;;;11.10;58.60;;;;;;6182963;23;20021;-76
2022/03/14 00:10:39;;;;;;;27.17;22.08;;;11.10;58.90;;;;;;6183994;23;20070;-76
2022/03/14 00:13:07;;;;;;;25.20;20.88;;;11.10;59.20;;;;;;6182726;23;20067;-76
2022/03/14 00:15:33;;;;;;;27.38;21.25;;;11.10;59.60;;;;;;6209344;23;20429;-76
2022/03/14 00:18:01;;;;;;;23.48;20.48;;;11.00;59.90;;;;;;6211390;23;20027;-77
2022/03/14 00:20:27;;;;;;;26.42;19.30;;;11.00;60.30;;;;;;6214207;23;20070;-77
2022/03/14 00:22:53;;;;;;;25.05;18.33;;;11.00;60.70;;;;;;6184704;23;20023;-76
2022/03/14 00:25:19;;;;;;;24.73;17.92;;;10.90;61.10;;;;;;6187230;23;20087;-77
2022/03/14 00:27:45;;;;;;;20.05;16.15;;;10.90;61.70;;;;;;6212801;23;20724;-76
2022/03/14 00:30:13;;;;;;;19.92;16.13;;;10.90;63.00;;;;;;6212968;23;20020;-76
2022/03/14 00:32:40;;;;;;;21.38;15.00;;;10.80;63.00;;;;;;6186254;23;20032;-76
2022/03/14 00:35:07;;;;;;;22.08;14.18;;;10.80;63.80;;;;;;6213700;23;20017;-76
2022/03/14 00:37:38;;;;;;;19.05;14.90;;;10.70;64.80;;;;;;6213557;23;20012;-76
2022/03/14 00:40:07;;;;;;;19.63;14.00;;;10.70;66.00;;;;;;6213722;23;20039;-76
2022/03/14 00:42:33;;;;;;;17.02;14.25;;;10.70;67.10;;;;;;6186870;23;20015;-76
2022/03/14 00:44:58;;;;;;;18.90;15.00;;;10.60;68.50;;;;;;6184804;23;20024;-76
2022/03/14 00:47:24;;;;;;;20.20;15.40;;;10.60;69.30;;;;;;6185530;23;20071;-76
2022/03/14 00:49:49;;;;;;;26.05;18.30;;;10.60;70.80;;;;;;6186651;23;20054;-76
2022/03/14 00:52:16;;;;;;;25.63;19.75;;;10.60;72.00;;;;;;6213481;23;20024;-76
2022/03/14 00:54:43;;;;;;;24.13;20.98;;;10.60;73.70;;;;;;6187262;23;20103;-76
2022/03/14 00:57:09;;;;;;;29.33;22.90;;;10.70;74.90;;;;;;6213839;23;20027;-76
2022/03/14 00:59:34;;;;;;;27.95;21.52;;;10.60;76.20;;;;;;6212956;23;20042;-76
2022/03/14 01:02:00;;;;;;;23.58;20.50;;;10.70;77.20;;;;;;6185855;23;20104;-76
2022/03/14 01:04:26;;;;;;;21.40;17.33;;;10.70;78.00;;;;;;6186338;23;20348;-76
2022/03/14 01:06:52;;;;;;;23.15;18.08;;;10.60;79.70;;;;;;6212004;23;20025;-76
2022/03/14 01:09:17;;;;;;;24.23;16.67;;;10.70;80.50;;;;;;6187027;23;20056;-76
2022/03/14 01:11:44;;;;;;;17.98;13.77;;;10.70;81.00;;;;;;6185153;23;20109;-76
2022/03/14 01:14:10;;;;;;;14.75;12.02;;;10.70;82.60;;;;;;6213735;23;20091;-77
2022/03/14 01:16:37;;;;;;;13.80;11.63;;;10.70;84.10;;;;;;6186760;23;20095;-77
2022/03/14 01:19:03;;;;;;;14.95;11.48;;;10.70;85.10;;;;;;6184876;23;20673;-77
2022/03/14 01:21:30;;;;;;;18.60;14.95;;;10.70;86.30;;;;;;6186753;23;20020;-77
2022/03/14 01:23:56;;;;;;;17.35;14.52;;;10.70;88.00;;;;;;6185420;23;20095;-77
2022/03/14 01:26:22;;;;;;;22.38;17.80;;;10.70;89.00;;;;;;6185867;23;20062;-77
2022/03/14 01:28:48;;;;;;;18.00;15.95;;;10.70;90.30;;;;;;6185235;23;20504;-76
2022/03/14 01:31:14;;;;;;;21.55;17.35;;;10.70;90.90;;;;;;6214164;23;20020;-77
2022/03/14 01:33:40;;;;;;;25.95;20.65;;;10.70;91.50;;;;;;6210898;23;20016;-77
2022/03/14 01:36:06;;;;;;;25.58;21.75;;;10.70;92.20;;;;;;6211568;23;20023;-77
2022/03/14 01:38:32;;;;;;;21.70;19.38;;;10.70;92.70;;;;;;6211742;23;20052;-77
2022/03/14 01:40:57;;;;;;;19.58;16.55;;;10.70;93.10;;;;;;6183948;23;20016;-77
2022/03/14 01:43:25;;;;;;;19.98;14.95;;;10.70;94.00;;;;;;6212543;23;20008;-77
2022/03/14 01:45:57;;;;;;;19.77;14.48;;;10.70;94.50;;;;;;6183178;23;20016;-77
2022/03/14 01:48:24;;;;;;;15.15;12.73;;;10.70;95.30;;;;;;6211253;23;20396;-77
2022/03/14 01:50:50;;;;;;;18.42;12.88;;;10.70;95.80;;;;;;6211432;23;20021;-77
2022/03/14 01:53:18;;;;;;;15.00;10.57;;;10.70;96.10;;;;;;6185047;23;20095;-77
2022/03/14 01:55:48;;;;;;;11.98;9.90;;;10.70;96.50;;;;;;6182411;23;20024;-77
2022/03/14 01:58:16;;;;;;;9.82;8.65;;;10.70;97.30;;;;;;6185444;23;20013;-77
2022/03/14 02:00:45;;;;;;;10.48;8.18;;;10.70;97.90;;;;;;6211127;23;20016;-77
2022/03/14 02:03:11;;;;;;;8.57;7.40;;;10.70;98.20;;;;;;6184135;23;20012;-77
2022/03/14 02:05:37;;;;;;;10.48;7.63;;;10.70;98.70;;;;;;6184607;23;20056;-77
2022/03/14 02:08:07;;;;;;;8.98;7.32;;;10.70;99.10;;;;;;6210236;23;20017;-77
2022/03/14 02:10:34;;;;;;;7.68;6.85;;;10.70;99.60;;;;;;6185174;23;20024;-78
2022/03/14 02:13:10;;;;;;;7.47;6.20;;;10.70;99.90;;;;;;6209684;23;20614;-78
2022/03/14 02:15:37;;;;;;;7.38;6.07;;;10.70;99.90;;;;;;6210872;23;20096;-76
2022/03/14 02:18:03;;;;;;;7.85;6.15;;;10.70;99.90;;;;;;6211352;23;20962;-76
2022/03/14 02:20:29;;;;;;;7.53;6.07;;;10.70;99.90;;;;;;6210723;23;20103;-76
2022/03/14 02:22:55;;;;;;;8.07;5.47;;;10.70;99.90;;;;;;6210102;23;20048;-76
2022/03/14 02:25:21;;;;;;;8.15;5.78;;;10.70;99.90;;;;;;6211235;23;20067;-77
2022/03/14 02:27:46;;;;;;;11.40;8.27;;;10.70;99.90;;;;;;6210943;23;20353;-77
2022/03/14 02:30:12;;;;;;;13.57;11.13;;;10.70;99.90;;;;;;6183023;23;20618;-77
2022/03/14 02:32:41;;;;;;;18.60;16.52;;;10.70;99.90;;;;;;6210948;23;20023;-77
2022/03/14 02:35:07;;;;;;;23.88;18.23;;;10.60;99.90;;;;;;6210530;23;20024;-77
2022/03/14 02:37:33;;;;;;;20.67;16.50;;;10.70;99.90;;;;;;6183956;23;20034;-78
2022/03/14 02:39:59;;;;;;;15.75;12.55;;;10.60;99.90;;;;;;6184133;23;20016;-77
2022/03/14 02:42:25;;;;;;;14.57;11.90;;;10.70;99.90;;;;;;6211608;23;20424;-78
2022/03/14 02:44:50;;;;;;;15.02;8.05;;;10.70;99.90;;;;;;6183048;23;20027;-78
2022/03/14 02:47:16;;;;;;;5.57;4.80;;;10.70;99.90;;;;;;6184708;23;20024;-77
2022/03/14 02:49:42;;;;;;;6.70;4.90;;;10.70;99.90;;;;;;6210672;23;20029;-77
2022/03/14 02:52:08;;;;;;;5.35;4.30;;;10.80;99.90;;;;;;6182253;23;20020;-77
2022/03/14 02:54:33;;;;;;;6.00;4.63;;;10.70;99.90;;;;;;6211715;23;20013;-77
2022/03/14 02:56:59;;;;;;;5.78;4.80;;;10.80;99.90;;;;;;6208615;23;20459;-76
2022/03/14 02:59:26;;;;;;;8.85;5.95;;;10.80;99.90;;;;;;6210911;23;20023;-76
2022/03/14 03:01:52;;;;;;;14.65;11.18;;;10.80;99.90;;;;;;6183038;23;20281;-76
2022/03/14 03:04:17;;;;;;;18.77;13.02;;;10.80;99.90;;;;;;6183781;23;20040;-76
2022/03/14 03:06:45;;;;;;;14.98;13.38;;;10.80;99.90;;;;;;6184287;23;20031;-76
2022/03/14 03:09:11;;;;;;;12.75;10.57;;;10.80;99.90;;;;;;6184532;23;20471;-76
2022/03/14 03:11:37;;;;;;;10.38;8.70;;;10.80;99.90;;;;;;6183868;23;20017;-75
2022/03/14 03:14:04;;;;;;;8.15;6.05;;;10.80;99.90;;;;;;6183934;23;20396;-75
2022/03/14 03:16:30;;;;;;;7.53;5.47;;;10.70;99.90;;;;;;6211489;23;20047;-75
2022/03/14 03:18:56;;;;;;;5.90;4.60;;;10.80;99.90;;;;;;6209302;23;20077;-77
2022/03/14 03:21:22;;;;;;;7.40;6.28;;;10.70;99.90;;;;;;6211166;23;20016;-75
2022/03/14 03:23:48;;;;;;;7.05;6.18;;;10.70;99.90;;;;;;6185118;23;20028;-76
2022/03/14 03:26:13;;;;;;;6.75;5.88;;;10.70;99.90;;;;;;6183055;23;20074;-76
2022/03/14 03:28:39;;;;;;;6.78;5.05;;;10.70;99.90;;;;;;6183418;23;20047;-77
2022/03/14 03:31:10;;;;;;;5.88;4.68;;;10.70;99.90;;;;;;6183257;23;20028;-76
2022/03/14 03:33:37;;;;;;;5.38;4.70;;;10.70;99.90;;;;;;6183766;23;20050;-76
2022/03/14 03:36:07;;;;;;;5.50;4.35;;;10.60;99.90;;;;;;6182853;23;20444;-76
2022/03/14 03:38:34;;;;;;;5.38;3.90;;;10.60;99.90;;;;;;6209629;23;20621;-76
2022/03/14 03:41:00;;;;;;;5.68;4.63;;;10.60;99.90;;;;;;6209472;23;20017;-76
2022/03/14 03:43:26;;;;;;;6.95;4.85;;;10.60;99.90;;;;;;6184010;23;20096;-76
2022/03/14 03:45:51;;;;;;;5.55;4.50;;;10.50;99.90;;;;;;6210329;23;20481;-76
2022/03/14 03:48:17;;;;;;;7.40;5.35;;;10.50;99.90;;;;;;6181927;23;20016;-76
2022/03/14 03:50:44;;;;;;;5.82;4.85;;;10.50;99.90;;;;;;6210003;23;20017;-76
2022/03/14 03:53:09;;;;;;;5.30;4.78;;;10.50;99.90;;;;;;6209771;23;20019;-76
2022/03/14 03:55:35;;;;;;;5.72;4.88;;;10.50;99.90;;;;;;6182883;23;20453;-76
2022/03/14 03:58:01;;;;;;;5.05;4.50;;;10.50;99.90;;;;;;6183308;23;20020;-76
2022/03/14 04:00:27;;;;;;;5.47;4.28;;;10.50;99.90;;;;;;6182173;23;20020;-76
2022/03/14 04:02:53;;;;;;;5.80;4.53;;;10.50;99.90;;;;;;6183327;23;20019;-76
2022/03/14 04:05:21;;;;;;;6.22;4.70;;;10.50;99.90;;;;;;6184191;23;20377;-76
2022/03/14 04:07:46;;;;;;;6.03;4.35;;;10.50;99.90;;;;;;6182408;23;20066;-76
2022/03/14 04:10:14;;;;;;;4.60;4.10;;;10.40;99.90;;;;;;6182908;23;20036;-75
2022/03/14 04:12:40;;;;;;;5.93;4.47;;;10.50;99.90;;;;;;6184139;23;20463;-76
2022/03/14 04:15:09;;;;;;;5.60;4.25;;;10.40;99.90;;;;;;6208850;23;20052;-75
2022/03/14 04:17:38;;;;;;;6.15;4.53;;;10.50;99.90;;;;;;6211100;23;20012;-76
2022/03/14 04:20:06;;;;;;;7.03;5.57;;;10.40;99.90;;;;;;6209389;23;20664;-75
2022/03/14 04:22:32;;;;;;;6.88;5.50;;;10.50;99.90;;;;;;6209149;23;20100;-76
2022/03/14 04:24:59;;;;;;;8.85;5.53;;;10.50;99.90;;;;;;6183010;23;20021;-76
2022/03/14 04:27:25;;;;;;;5.95;5.22;;;10.50;99.90;;;;;;6183555;23;20100;-76
2022/03/14 04:29:51;;;;;;;6.35;5.40;;;10.50;99.90;;;;;;6182331;23;20021;-76
2022/03/14 04:32:17;;;;;;;6.32;5.57;;;10.40;99.90;;;;;;6210989;23;20108;-76
2022/03/14 04:34:43;;;;;;;6.97;5.75;;;10.50;99.90;;;;;;6210740;23;20601;-76
2022/03/14 04:37:10;;;;;;;7.60;6.13;;;10.50;99.90;;;;;;6182394;23;20027;-76
2022/03/14 04:39:35;;;;;;;7.00;5.90;;;10.40;99.90;;;;;;6183808;23;20021;-76
2022/03/14 04:42:01;;;;;;;8.27;6.28;;;10.40;99.90;;;;;;6209438;23;20013;-77
2022/03/14 04:44:27;;;;;;;7.38;5.78;;;10.40;99.90;;;;;;6209970;23;20012;-76
2022/03/14 04:46:52;;;;;;;8.27;6.78;;;10.40;99.90;;;;;;6208425;23;20021;-78
2022/03/14 04:49:18;;;;;;;7.15;6.03;;;10.40;99.90;;;;;;6210228;23;20508;-78
2022/03/14 04:51:43;;;;;;;9.40;6.90;;;10.30;99.90;;;;;;6209041;23;20023;-78
2022/03/14 04:54:09;;;;;;;7.93;6.20;;;10.30;99.90;;;;;;6183526;23;20023;-78
2022/03/14 04:56:35;;;;;;;7.88;6.25;;;10.30;99.90;;;;;;6208871;23;20387;-77
2022/03/14 04:59:01;;;;;;;8.38;6.40;;;10.30;99.90;;;;;;6182272;23;20092;-77
2022/03/14 05:01:26;;;;;;;7.93;6.32;;;10.20;99.90;;;;;;6183786;23;20031;-78
2022/03/14 05:03:52;;;;;;;7.40;6.57;;;10.20;99.90;;;;;;6183016;23;20078;-78
2022/03/14 05:06:21;;;;;;;8.52;6.30;;;10.20;99.90;;;;;;6212268;23;20023;-77
2022/03/14 05:08:47;;;;;;;7.43;5.80;;;10.20;99.90;;;;;;6210709;23;20036;-77
2022/03/14 05:11:14;;;;;;;6.60;5.60;;;10.20;99.90;;;;;;6184756;23;20024;-78
2022/03/14 05:13:41;;;;;;;7.35;5.70;;;10.10;99.90;;;;;;6211952;23;20024;-79
2022/03/14 05:16:07;;;;;;;9.68;6.20;;;10.10;99.90;;;;;;6186456;23;20349;-78
2022/03/14 05:18:32;;;;;;;7.88;5.22;;;10.10;99.90;;;;;;6212232;23;20021;-78
2022/03/14 05:20:58;;;;;;;8.57;6.18;;;10.10;99.90;;;;;;6211172;23;20394;-78
2022/03/14 05:23:24;;;;;;;10.05;7.40;;;10.10;99.90;;;;;;6211758;23;20310;-79
2022/03/14 05:25:50;;;;;;;11.38;9.23;;;10.10;99.90;;;;;;6209717;23;20023;-79
2022/03/14 05:28:15;;;;;;;13.48;11.13;;;10.10;99.90;;;;;;6212228;23;20024;-79
2022/03/14 05:30:41;;;;;;;18.00;14.88;;;10.00;99.90;;;;;;6185343;23;20043;-79
2022/03/14 05:33:07;;;;;;;24.05;21.25;;;10.00;99.90;;;;;;6209291;23;20080;-78
2022/03/14 05:35:33;;;;;;;40.35;33.80;;;10.00;99.90;;;;;;6185171;23;20384;-78
2022/03/14 05:37:58;;;;;;;53.58;44.15;;;10.00;99.90;;;;;;6184817;23;20087;-79
2022/03/14 05:40:24;;;;;;;89.05;67.80;;;10.00;99.90;;;;;;6211258;23;20500;-79
2022/03/14 05:42:50;;;;;;;101.50;78.28;;;10.00;99.90;;;;;;6210865;23;20024;-78
2022/03/14 05:45:17;;;;;;;111.45;83.18;;;9.90;99.90;;;;;;6211686;23;20023;-78
2022/03/14 05:47:44;;;;;;;116.22;84.03;;;9.90;99.90;;;;;;6210222;23;20022;-77
2022/03/14 05:50:10;;;;;;;109.20;77.25;;;9.90;99.90;;;;;;6211019;23;20468;-79
2022/03/14 05:52:36;;;;;;;120.50;83.25;;;9.90;99.90;;;;;;6185366;23;20071;-79
2022/03/14 05:55:02;;;;;;;117.60;84.45;;;9.90;99.90;;;;;;6210245;23;20333;-78
2022/03/14 05:57:28;;;;;;;103.68;77.28;;;9.90;99.90;;;;;;6211648;23;20021;-77
2022/03/14 05:59:53;;;;;;;93.40;67.93;;;9.80;99.90;;;;;;6209444;23;20019;-78
2022/03/14 06:02:23;;;;;;;73.45;54.33;;;9.80;99.90;;;;;;6212111;23;20101;-78
2022/03/14 06:04:49;;;;;;;54.30;40.55;;;9.80;99.90;;;;;;6182812;23;20017;-78
2022/03/14 06:07:15;;;;;;;46.42;31.27;;;9.80;99.90;;;;;;6183469;23;20020;-77
2022/03/14 06:09:41;;;;;;;46.67;30.33;;;9.80;99.90;;;;;;6211328;23;20052;-78
2022/03/14 06:12:07;;;;;;;41.47;26.95;;;9.80;99.90;;;;;;6211288;23;20016;-77
2022/03/14 06:14:34;;;;;;;34.70;23.65;;;9.80;99.90;;;;;;6210261;23;20079;-77
2022/03/14 06:16:59;;;;;;;27.00;19.40;;;9.80;99.90;;;;;;6184004;23;20039;-78
2022/03/14 06:19:25;;;;;;;25.58;19.90;;;9.80;99.90;;;;;;6211450;23;20032;-78
2022/03/14 06:21:50;;;;;;;19.50;15.93;;;9.80;99.90;;;;;;6183203;23;20024;-78
2022/03/14 06:24:17;;;;;;;17.55;15.70;;;9.70;99.90;;;;;;6185045;23;20024;-78
2022/03/14 06:26:43;;;;;;;18.67;16.17;;;9.70;99.90;;;;;;6185091;23;20017;-78
2022/03/14 06:29:09;;;;;;;18.95;16.95;;;9.70;99.90;;;;;;6210373;23;20074;-78
2022/03/14 06:31:35;;;;;;;24.73;20.42;;;9.80;99.90;;;;;;6211169;23;20025;-78
2022/03/14 06:34:01;;;;;;;20.25;18.02;;;9.70;99.90;;;;;;6184274;23;20096;-81
2022/03/14 06:36:27;;;;;;;19.55;17.08;;;9.70;99.90;;;;;;6210567;23;20040;-83
2022/03/14 06:38:58;;;;;;;16.42;14.13;;;9.70;99.90;;;;;;6209399;23;20124;-77
2022/03/14 06:41:24;;;;;;;;;;;9.70;99.90;;;;;;6181609;23;20020;-77
2022/03/14 06:43:52;;;;;;;12.13;10.73;;;9.70;99.90;;;;;;6181886;23;19990;-77
2022/03/14 06:46:18;;;;;;;10.27;9.18;;;9.70;99.90;;;;;;6210531;23;20013;-79
2022/03/14 06:48:44;;;;;;;10.82;9.38;;;9.70;99.90;;;;;;6210176;23;20020;-79
2022/03/14 06:51:10;;;;;;;12.10;9.38;;;9.70;99.90;;;;;;6209163;23;20042;-79
2022/03/14 06:53:36;;;;;;;9.93;8.43;;;9.70;99.90;;;;;;6184374;23;20013;-78
2022/03/14 06:56:02;;;;;;;9.70;8.55;;;9.70;99.90;;;;;;6182767;23;20032;-77
2022/03/14 06:58:29;;;;;;;10.80;8.30;;;9.70;99.90;;;;;;6208122;23;20052;-78
2022/03/14 07:00:56;;;;;;;9.75;7.75;;;9.70;99.90;;;;;;6182234;23;20029;-78
2022/03/14 07:03:21;;;;;;;10.70;9.15;;;9.70;99.90;;;;;;6209379;23;20088;-78
2022/03/14 07:05:47;;;;;;;15.02;9.95;;;9.70;99.90;;;;;;6209417;23;20055;-78
2022/03/14 07:08:13;;;;;;;11.00;8.60;;;9.70;99.90;;;;;;6210185;23;20024;-78
2022/03/14 07:10:38;;;;;;;11.00;8.60;;;9.70;99.90;;;;;;6186417;23;20047;-78
2022/03/14 07:13:04;;;;;;;11.70;9.85;;;9.70;99.90;;;;;;6182982;23;20333;-79
2022/03/14 07:15:30;;;;;;;15.60;13.23;;;9.70;99.90;;;;;;6209441;23;20019;-79
2022/03/14 07:17:56;;;;;;;17.65;14.55;;;9.70;99.90;;;;;;6206470;23;20016;-79
2022/03/14 07:20:23;;;;;;;18.23;13.95;;;9.70;99.90;;;;;;6183032;23;20094;-79
2022/03/14 07:22:48;;;;;;;16.42;14.45;;;9.70;99.90;;;;;;6182653;23;20027;-79
2022/03/14 07:25:17;;;;;;;13.75;12.30;;;9.70;99.90;;;;;;6182377;23;20020;-79
2022/03/14 07:27:42;;;;;;;12.48;10.68;;;9.70;99.90;;;;;;6208365;23;20017;-79
2022/03/14 07:30:09;;;;;;;14.57;11.93;;;9.70;99.90;;;;;;6208953;23;20333;-79
2022/03/14 07:32:34;;;;;;;14.10;12.30;;;9.70;99.90;;;;;;6183227;23;20634;-78
2022/03/14 07:35:00;;;;;;;12.40;11.10;;;9.70;99.90;;;;;;6209514;23;20019;-78
2022/03/14 07:37:26;;;;;;;11.18;9.43;;;9.70;99.90;;;;;;6183715;23;20079;-79
2022/03/14 07:39:51;;;;;;;11.32;9.50;;;9.70;99.90;;;;;;6208245;23;20012;-79
2022/03/14 07:42:17;;;;;;;10.00;8.90;;;9.70;99.90;;;;;;6183133;23;20024;-79
2022/03/14 07:44:42;;;;;;;10.30;8.80;;;9.70;99.90;;;;;;6210534;23;20024;-79
2022/03/14 07:47:10;;;;;;;9.82;8.43;;;9.70;99.90;;;;;;6180612;23;20032;-79
2022/03/14 07:49:36;;;;;;;13.60;10.07;;;9.70;99.90;;;;;;6183077;23;20013;-79
2022/03/14 07:52:02;;;;;;;11.25;9.35;;;9.70;99.90;;;;;;6209656;23;20346;-79
2022/03/14 07:54:28;;;;;;;12.05;10.05;;;9.70;99.90;;;;;;6208589;23;20040;-79
2022/03/14 07:56:54;;;;;;;11.52;10.32;;;9.70;99.90;;;;;;6209639;23;20477;-79
2022/03/14 07:59:19;;;;;;;12.13;10.90;;;9.70;99.90;;;;;;6209769;23;20092;-79
2022/03/14 08:01:45;;;;;;;12.93;11.63;;;9.70;99.90;;;;;;6208666;23;20016;-79
2022/03/14 08:04:10;;;;;;;11.75;10.35;;;9.70;99.90;;;;;;6210174;23;20503;-79
2022/03/14 08:06:41;;;;;;;12.35;10.98;;;9.70;99.90;;;;;;6209434;23;20506;-79
2022/03/14 08:09:08;;;;;;;12.35;11.07;;;9.70;99.90;;;;;;6208318;23;20456;-79
2022/03/14 08:11:35;;;;;;;11.77;10.57;;;9.70;99.90;;;;;;6210125;23;20480;-78
2022/03/14 08:14:01;;;;;;;12.47;11.17;;;9.70;99.90;;;;;;6207841;23;20013;-78
2022/03/14 08:16:27;;;;;;;13.73;12.30;;;9.70;99.90;;;;;;6208865;23;20255;-76
2022/03/14 08:18:53;;;;;;;16.05;14.35;;;9.80;99.90;;;;;;6209573;23;20452;-79
2022/03/14 08:21:18;;;;;;;18.17;16.08;;;9.80;99.90;;;;;;6210688;23;20050;-79
2022/03/14 08:23:45;;;;;;;16.13;14.43;;;9.80;99.90;;;;;;6210633;23;20038;-74
2022/03/14 08:26:15;;;;;;;17.85;15.65;;;9.90;99.90;;;;;;6184163;23;20024;-74
2022/03/14 08:28:43;;;;;;;22.00;19.60;;;9.90;99.90;;;;;;6210721;23;20051;-75
2022/03/14 08:31:10;;;;;;;21.67;19.38;;;9.80;99.90;;;;;;6211344;23;20028;-75
2022/03/14 08:33:40;;;;;;;20.98;18.77;;;9.90;99.90;;;;;;6212445;23;20009;-85
2022/03/14 08:36:06;;;;;;;25.48;22.80;;;9.90;99.90;;;;;;6184710;23;20475;-75
2022/03/14 08:38:32;;;;;;;27.33;24.25;;;9.90;99.90;;;;;;6187065;23;20388;-75
2022/03/14 08:40:58;;;;;;;32.55;26.52;;;9.90;99.90;;;;;;6213366;23;20017;-75
2022/03/14 08:43:24;;;;;;;28.02;23.25;;;9.90;99.90;;;;;;6212406;23;20012;-73
2022/03/14 08:45:49;;;;;;;23.95;18.98;;;10.00;99.90;;;;;;6186414;23;20348;-73
2022/03/14 08:48:15;;;;;;;19.88;15.77;;;10.00;99.90;;;;;;6188105;23;20025;-77
2022/03/14 08:50:41;;;;;;;17.80;14.75;;;10.00;99.90;;;;;;6213998;23;20016;-74
2022/03/14 08:53:07;;;;;;;15.15;13.68;;;10.00;99.90;;;;;;6213785;23;20020;-74
2022/03/14 08:55:34;;;;;;;15.90;14.13;;;10.00;99.90;;;;;;6214778;23;20059;-73
2022/03/14 08:58:00;;;;;;;15.63;13.90;;;10.00;99.90;;;;;;6212668;23;20043;-73
2022/03/14 09:00:27;;;;;;;16.98;14.23;;;10.00;99.90;;;;;;6186978;23;20445;-74
2022/03/14 09:02:54;;;;;;;15.43;13.93;;;10.00;99.90;;;;;;6185490;23;20463;-74
2022/03/14 09:05:20;;;;;;;15.38;13.77;;;10.00;99.90;;;;;;6212913;23;20099;-73
2022/03/14 09:07:46;;;;;;;15.95;14.25;;;10.00;99.90;;;;;;6186331;23;20012;-73
2022/03/14 09:10:13;;;;;;;15.95;14.35;;;10.00;99.90;;;;;;6186790;23;20028;-73
2022/03/14 09:12:39;;;;;;;16.03;13.80;;;10.00;99.90;;;;;;6188200;23;20119;-73
2022/03/14 09:15:06;;;;;;;17.02;14.48;;;10.00;99.90;;;;;;6213635;23;20016;-73
2022/03/14 09:17:32;;;;;;;14.57;13.02;;;10.00;99.90;;;;;;6186914;23;20028;-73
2022/03/14 09:20:00;;;;;;;14.93;13.43;;;10.00;99.90;;;;;;6186358;23;20448;-72
2022/03/14 09:22:26;;;;;;;16.77;13.68;;;10.00;99.90;;;;;;6186375;23;20024;-73
2022/03/14 09:24:53;;;;;;;15.05;13.52;;;10.00;99.90;;;;;;6212055;23;20027;-73
2022/03/14 09:27:19;;;;;;;16.02;14.20;;;9.90;99.90;;;;;;6214307;23;20150;-76
2022/03/14 09:29:45;;;;;;;17.17;14.77;;;9.90;99.90;;;;;;6186058;23;20468;-74
2022/03/14 09:32:13;;;;;;;17.52;15.60;;;9.90;99.90;;;;;;6185860;23;20345;-74
2022/03/14 09:34:40;;;;;;;18.00;16.10;;;9.80;99.90;;;;;;6186777;23;20021;-73
2022/03/14 09:37:06;;;;;;;19.20;16.92;;;9.80;99.90;;;;;;6212783;23;20091;-75
2022/03/14 09:39:32;;;;;;;21.30;18.13;;;9.80;99.90;;;;;;6212810;23;20044;-76
2022/03/14 09:42:01;;;;;;;21.42;18.75;;;9.80;99.90;;;;;;6213615;23;20052;-76
2022/03/14 09:44:29;;;;;;;24.92;19.55;;;9.70;99.90;;;;;;6214104;23;20099;-75
2022/03/14 09:46:59;;;;;;;24.40;19.77;;;9.70;99.90;;;;;;6212572;23;20016;-75
2022/03/14 09:49:26;;;;;;;22.98;19.02;;;9.60;99.90;;;;;;6212776;23;20021;-76
2022/03/14 09:51:54;;;;;;;23.25;19.30;;;9.60;99.90;;;;;;6186347;23;20074;-76
2022/03/14 09:54:23;;;;;;;23.45;19.15;;;9.60;99.90;;;;;;6187855;23;20018;-76
2022/03/14 09:56:49;;;;;;;22.20;18.92;;;9.50;99.90;;;;;;6186830;23;20055;-75
2022/03/14 09:59:15;;;;;;;19.05;16.75;;;9.50;99.90;;;;;;6211254;23;20849;-74
2022/03/14 10:01:42;;;;;;;19.27;17.17;;;9.50;99.90;;;;;;6186347;23;20017;-76
2022/03/14 10:04:08;;;;;;;22.10;17.60;;;9.50;99.90;;;;;;6186267;23;20025;-76
2022/03/14 10:06:35;;;;;;;19.90;17.10;;;9.50;99.90;;;;;;6212901;23;20017;-75
2022/03/14 10:09:01;;;;;;;21.47;17.27;;;9.50;99.90;;;;;;6212192;23;20017;-81
2022/03/14 10:11:28;;;;;;;18.23;16.30;;;9.50;99.90;;;;;;6213919;23;20048;-80
2022/03/14 10:13:53;;;;;;;21.33;17.55;;;9.50;99.90;;;;;;6211235;23;20016;-77
2022/03/14 10:16:19;;;;;;;21.08;16.85;;;9.40;99.90;;;;;;6212680;23;20013;-76
2022/03/14 10:18:57;;;;;;;19.40;16.52;;;9.50;99.90;;;;;;6213654;23;20017;-75
2022/03/14 10:21:52;;;;;;;19.23;16.35;;;9.50;99.90;;;;;;6212149;23;20017;-75
2022/03/14 10:24:22;;;;;;;23.50;17.48;;;9.50;99.90;;;;;;6211072;23;20012;-73
2022/03/14 10:26:49;;;;;;;21.02;17.23;;;9.50;99.90;;;;;;6185784;23;20024;-73
2022/03/14 10:29:15;;;;;;;21.17;17.45;;;9.50;99.90;;;;;;6184647;23;20025;-75
2022/03/14 10:31:45;;;;;;;22.15;17.25;;;9.50;99.90;;;;;;6212471;23;20028;-75
2022/03/14 10:34:13;;;;;;;22.75;17.50;;;9.50;99.90;;;;;;6184744;23;20020;-75
2022/03/14 10:36:51;;;;;;;24.85;16.50;;;9.50;99.90;;;;;;6186334;23;20024;-77
2022/03/14 10:39:26;;;;;;;25.35;17.27;;;9.50;99.90;;;;;;6213406;23;20016;-75
2022/03/14 10:42:04;;;;;;;21.05;14.95;;;9.50;99.90;;;;;;6211604;23;20223;-75
2022/03/14 10:44:31;;;;;;;22.85;14.93;;;9.50;99.90;;;;;;6212850;23;20048;-75
2022/03/14 10:46:59;;;;;;;20.20;14.52;;;9.50;99.90;;;;;;6211753;23;20067;-80
2022/03/14 10:49:37;;;;;;;20.55;14.40;;;9.50;99.90;;;;;;6182544;23;20078;-81
2022/03/14 10:52:04;;;;;;;;;;;9.50;99.90;;;;;;6184813;23;21015;-78
2022/03/14 10:54:34;;;;;;;21.25;13.20;;;9.50;99.90;;;;;;6213960;23;20253;-76
2022/03/14 10:57:12;;;;;;;21.75;13.43;;;9.50;99.90;;;;;;6212002;23;20016;-77
2022/03/14 10:59:38;;;;;;;18.58;12.98;;;9.60;99.90;;;;;;6212157;23;20027;-75
2022/03/14 11:02:17;;;;;;;22.75;13.52;;;9.60;99.90;;;;;;6210771;23;20021;-75
2022/03/14 11:04:54;;;;;;;18.92;12.00;;;9.60;99.90;;;;;;6211613;23;20441;-77
2022/03/14 11:07:24;;;;;;;19.60;10.90;;;9.60;99.90;;;;;;6212262;23;20047;-75
2022/03/14 11:09:52;;;;;;;18.60;9.95;;;9.70;99.90;;;;;;6210427;23;20135;-75
2022/03/14 11:12:21;;;;;;;19.33;10.93;;;9.70;99.90;;;;;;6212688;23;20100;-75
2022/03/14 11:14:55;;;;;;;17.02;11.25;;;9.70;99.90;;;;;;6211639;23;20465;-77
2022/03/14 11:17:30;;;;;;;17.52;9.63;;;9.80;99.90;;;;;;6210982;23;20019;-82
2022/03/14 11:19:58;;;;;;;15.80;9.73;;;9.80;99.90;;;;;;6210896;23;20052;-81
2022/03/14 11:22:26;;;;;;;14.65;8.52;;;9.80;99.90;;;;;;6185069;23;20082;-81
2022/03/14 11:24:57;;;;;;;16.88;7.95;;;9.80;99.90;;;;;;6210638;23;20013;-77
2022/03/14 11:27:34;;;;;;;14.25;6.85;;;9.90;99.90;;;;;;6211882;23;20088;-72
2022/03/14 11:30:07;;;;;;;;;;;9.90;99.90;;;;;;6210832;23;20016;-76
2022/03/14 11:32:35;;;;;;;15.73;6.20;;;9.90;99.90;;;;;;6210489;23;19926;-77
2022/03/14 11:35:02;;;;;;;16.85;6.45;;;9.90;99.90;;;;;;6212106;23;20349;-76
2022/03/14 11:37:30;;;;;;;12.82;5.85;;;10.00;99.90;;;;;;6211453;23;20028;-75
2022/03/14 11:39:58;;;;;;;15.38;5.60;;;10.00;99.90;;;;;;6211831;23;20366;-76
2022/03/14 11:42:24;;;;;;;13.05;6.00;;;10.00;99.90;;;;;;6212143;23;20017;-76
2022/03/14 11:44:51;;;;;;;12.70;5.78;;;10.00;99.90;;;;;;6184242;23;20114;-76
2022/03/14 11:47:19;;;;;;;11.57;5.72;;;10.00;99.90;;;;;;6212133;23;20503;-79
2022/03/14 11:49:46;;;;;;;13.55;5.90;;;10.10;99.90;;;;;;6212240;23;20027;-79
2022/03/14 11:52:14;;;;;;;17.37;7.13;;;10.10;99.90;;;;;;6184784;23;20102;-74
2022/03/14 11:54:41;;;;;;;;;;;10.10;99.90;;;;;;6212811;23;20048;-74
2022/03/14 11:57:07;;;;;;;14.73;6.50;;;10.10;99.90;;;;;;6212624;23;19916;-74
2022/03/14 11:59:35;;;;;;;16.55;6.75;;;10.10;99.90;;;;;;6210587;23;20057;-77
2022/03/14 12:02:05;;;;;;;15.02;7.43;;;10.20;99.90;;;;;;6184659;23;20023;-75
2022/03/14 12:04:38;;;;;;;16.73;8.25;;;10.30;99.90;;;;;;6212143;23;20095;-73
2022/03/14 12:07:10;;;;;;;16.63;8.35;;;10.30;99.90;;;;;;6209772;23;20036;-73
2022/03/14 12:09:37;;;;;;;17.50;8.57;;;10.30;99.90;;;;;;6211942;23;20040;-75
2022/03/14 12:12:05;;;;;;;15.80;8.02;;;10.30;99.90;;;;;;6211984;23;20827;-79
2022/03/14 12:14:44;;;;;;;15.27;9.32;;;10.40;99.90;;;;;;6211919;23;20047;-78
2022/03/14 12:17:12;;;;;;;15.85;9.15;;;10.50;99.90;;;;;;6185654;23;20020;-80
2022/03/14 12:19:48;;;;;;;19.27;9.48;;;10.60;99.90;;;;;;6184935;23;20020;-80
2022/03/14 12:22:39;;;;;;;17.33;9.73;;;10.60;99.90;;;;;;6185662;23;20077;-80
2022/03/14 12:25:07;;;;;;;14.98;10.27;;;10.70;99.90;;;;;;6185202;23;20070;-81
2022/03/14 12:27:41;;;;;;;18.38;11.02;;;10.80;99.90;;;;;;6211073;23;20021;-80
2022/03/14 12:30:16;;;;;;;17.88;11.82;;;10.80;99.90;;;;;;6184682;23;20254;-78
2022/03/14 12:32:54;;;;;;;17.10;10.75;;;10.90;99.90;;;;;;6212981;23;20052;-79
2022/03/14 12:35:24;;;;;;;17.55;11.50;;;11.00;99.90;;;;;;6207840;23;20074;-77
2022/03/14 12:38:10;;;;;;;17.17;11.85;;;11.00;99.90;;;;;;6208671;23;20028;-77